| time (UTC) | temp F | wind direction | speed knots | gust knots | rain 1hr in | rain 24hr in | rain mn in | humidity % | barometer mb |
| 20260906124928 | 93 | 48 | 3.5 | 5.2 | 0.00 | 0.00 | 0.00 | 14 | 1011.5 |
| 20260906124428 | 93 | 3 | 0.9 | 0.9 | 0.00 | 0.00 | 0.00 | 14 | 1011.5 |
| 20260906123928 | 92 | 98 | 0.9 | 0.9 | 0.00 | 0.00 | 0.00 | 14 | 1011.5 |
| 20260906123429 | 92 | 88 | 0.9 | 1.7 | 0.00 | 0.00 | 0.00 | 16 | 1011.5 |
| 20260906122928 | 92 | 26 | 4.3 | 6.1 | 0.00 | 0.00 | 0.00 | 16 | 1011.5 |
| 20260906122428 | 92 | 38 | 2.6 | 2.6 | 0.00 | 0.00 | 0.00 | 16 | 1011.5 |
| 20260906121928 | 91 | 28 | 0.9 | 0.9 | 0.00 | 0.00 | 0.00 | 17 | 1011.5 |
| 20260906121428 | 91 | 358 | 4.3 | 6.1 | 0.00 | 0.00 | 0.00 | 17 | 1011.9 |
| 20260906120928 | 92 | 17 | 4.3 | 7.0 | 0.00 | 0.00 | 0.00 | 17 | 1011.5 |
| 20260906120429 | 92 | 2 | 4.3 | 8.7 | 0.00 | 0.00 | 0.00 | 16 | 1011.9 |
| 20260906115928 | 92 | 42 | 1.7 | 2.6 | 0.00 | 0.00 | 0.00 | 16 | 1011.5 |
| 20260906115429 | 92 | 65 | 1.7 | 2.6 | 0.00 | 0.00 | 0.00 | 16 | 1011.9 |
| 20260906114928 | 92 | 4 | 3.5 | 4.3 | 0.00 | 0.00 | 0.00 | 17 | 1011.5 |
| 20260906114429 | 92 | 66 | 2.6 | 4.3 | 0.00 | 0.00 | 0.00 | 18 | 1011.5 |
| 20260906113929 | 91 | 109 | 2.6 | 2.6 | 0.00 | 0.00 | 0.00 | 19 | 1011.9 |
| 20260906113429 | 91 | 70 | 2.6 | 2.6 | 0.00 | 0.00 | 0.00 | 20 | 1011.9 |
| 20260906112928 | 92 | 175 | 1.7 | 1.7 | 0.00 | 0.00 | 0.00 | 19 | 1011.9 |
| 20260906112428 | 92 | 108 | 0.9 | 0.9 | 0.00 | 0.00 | 0.00 | 20 | 1011.9 |
| 20260906111929 | 92 | 66 | 2.6 | 2.6 | 0.00 | 0.00 | 0.00 | 22 | 1011.9 |
| 20260906111428 | 90 | 197 | 0.0 | 0.0 | 0.00 | 0.00 | 0.00 | 22 | 1011.9 |
| 20260906110932 | 90 | 85 | 2.6 | 2.6 | 0.00 | 0.00 | 0.00 | 23 | 1011.9 |
| 20260906110428 | 91 | 82 | 1.7 | 1.7 | 0.00 | 0.00 | 0.00 | 23 | 1011.9 |
| 20260906105931 | 91 | 187 | 0.0 | 0.0 | 0.00 | 0.00 | 0.00 | 23 | 1011.9 |
| 20260906105428 | 90 | 198 | 3.5 | 4.3 | 0.00 | 0.00 | 0.00 | 23 | 1012.2 |
| 20260906104929 | 91 | 191 | 3.5 | 4.3 | 0.00 | 0.00 | 0.00 | 24 | 1012.2 |
| 20260906104429 | 90 | 200 | 3.5 | 4.3 | 0.00 | 0.00 | 0.00 | 23 | 1011.9 |
| 20260906103929 | 89 | 212 | 2.6 | 2.6 | 0.00 | 0.00 | 0.00 | 26 | 1012.2 |
| 20260906103429 | 89 | 246 | 1.7 | 2.6 | 0.00 | 0.00 | 0.00 | 25 | 1011.9 |
| 20260906102929 | 88 | 224 | 2.6 | 2.6 | 0.00 | 0.00 | 0.00 | 29 | 1011.9 |
| 20260906102428 | 88 | 120 | 2.6 | 2.6 | 0.00 | 0.00 | 0.00 | 30 | 1012.2 |
| 20260906101930 | 88 | 70 | 4.3 | 5.2 | 0.00 | 0.00 | 0.00 | 30 | 1012.5 |
| 20260906101428 | 87 | 116 | 1.7 | 1.7 | 0.00 | 0.00 | 0.00 | 32 | 1012.2 |
| 20260906100929 | 88 | 83 | 3.5 | 7.0 | 0.00 | 0.00 | 0.00 | 31 | 1012.5 |
| 20260906100429 | 87 | 62 | 2.6 | 2.6 | 0.00 | 0.00 | 0.00 | 32 | 1012.5 |
| 20260906095929 | 87 | 74 | 1.7 | 4.3 | 0.00 | 0.00 | 0.00 | 33 | 1012.5 |
| 20260906095432 | 86 | 204 | 0.9 | 0.9 | 0.00 | 0.00 | 0.00 | 33 | 1012.5 |
| 20260906094928 | 86 | 173 | 2.6 | 4.3 | 0.00 | 0.00 | 0.00 | 34 | 1012.5 |
| 20260906094430 | 86 | 267 | 1.7 | 1.7 | 0.00 | 0.00 | 0.00 | 34 | 1012.5 |
| 20260906093928 | 86 | 85 | 0.9 | 1.7 | 0.00 | 0.00 | 0.00 | 35 | 1012.9 |
| 20260906093431 | 85 | 90 | 1.7 | 1.7 | 0.00 | 0.00 | 0.00 | 35 | 1012.9 |
| 20260906092929 | 86 | 111 | 1.7 | 2.6 | 0.00 | 0.00 | 0.00 | 35 | 1012.9 |
| 20260906092428 | 85 | 223 | 1.7 | 1.7 | 0.00 | 0.00 | 0.00 | 36 | 1012.9 |
| 20260906091931 | 84 | 245 | 0.9 | 0.9 | 0.00 | 0.00 | 0.00 | 36 | 1012.9 |
| 20260906091428 | 84 | 153 | 2.6 | 4.3 | 0.00 | 0.00 | 0.00 | 35 | 1013.2 |
| 20260906090928 | 84 | 165 | 3.5 | 4.3 | 0.00 | 0.00 | 0.00 | 36 | 1012.9 |
| 20260906090430 | 84 | 258 | 0.9 | 0.9 | 0.00 | 0.00 | 0.00 | 37 | 1013.2 |
| 20260906085929 | 84 | 143 | 3.5 | 4.3 | 0.00 | 0.00 | 0.00 | 36 | 1012.9 |
| 20260906085428 | 84 | 187 | 1.7 | 2.6 | 0.00 | 0.00 | 0.00 | 37 | 1013.2 |
| 20260906084929 | 83 | 306 | 0.9 | 0.9 | 0.00 | 0.00 | 0.00 | 37 | 1012.9 |
| 20260906084428 | 82 | 230 | 1.7 | 1.7 | 0.00 | 0.00 | 0.00 | 38 | 1013.2 |
| 20260906083929 | 83 | 191 | 6.1 | 7.0 | 0.00 | 0.00 | 0.00 | 37 | 1013.2 |
| 20260906083428 | 84 | 294 | 0.9 | 0.9 | 0.00 | 0.00 | 0.00 | 37 | 1013.2 |
| 20260906082928 | 83 | 147 | 0.0 | 0.0 | 0.00 | 0.00 | 0.00 | 38 | 1013.2 |
| 20260906082429 | 82 | 198 | 1.7 | 1.7 | 0.00 | 0.00 | 0.00 | 40 | 1013.2 |
| 20260906081928 | 82 | 194 | 1.7 | 1.7 | 0.00 | 0.00 | 0.00 | 41 | 1013.5 |
| 20260906081429 | 82 | 242 | 2.6 | 2.6 | 0.00 | 0.00 | 0.00 | 41 | 1013.5 |
| 20260906080928 | 81 | 160 | 1.7 | 0.9 | 0.00 | 0.00 | 0.00 | 41 | 1013.5 |
| 20260906080428 | 81 | 158 | 2.6 | 2.6 | 0.00 | 0.00 | 0.00 | 42 | 1013.5 |
| 20260906075928 | 81 | 142 | 4.3 | 6.1 | 0.00 | 0.00 | 0.00 | 42 | 1013.5 |
| 20260906075428 | 81 | 166 | 0.9 | 0.9 | 0.00 | 0.00 | 0.00 | 43 | 1013.5 |
| 20260906074928 | 81 | 215 | 0.9 | 0.0 | 0.00 | 0.00 | 0.00 | 44 | 1013.5 |
| 20260906074428 | 81 | 202 | 4.3 | 5.2 | 0.00 | 0.00 | 0.00 | 43 | 1013.9 |
| 20260906073929 | 80 | 57 | 0.0 | 0.0 | 0.00 | 0.00 | 0.00 | 45 | 1013.5 |
| 20260906073429 | 80 | 103 | 3.5 | 4.3 | 0.00 | 0.00 | 0.00 | 45 | 1013.5 |
| 20260906072929 | 80 | 212 | 0.9 | 0.9 | 0.00 | 0.00 | 0.00 | 46 | 1013.5 |
| 20260906072429 | 79 | 125 | 0.9 | 0.9 | 0.00 | 0.00 | 0.00 | 45 | 1013.5 |
| 20260906071928 | 80 | 216 | 0.9 | 0.9 | 0.00 | 0.00 | 0.00 | 45 | 1013.5 |
| 20260906071429 | 80 | 212 | 0.9 | 0.9 | 0.00 | 0.00 | 0.00 | 46 | 1013.5 |
| 20260906070928 | 78 | 156 | 0.0 | 0.0 | 0.00 | 0.00 | 0.00 | 47 | 1013.5 |
| 20260906070428 | 78 | 197 | 1.7 | 1.7 | 0.00 | 0.00 | 0.00 | 48 | 1013.5 |
| 20260906065928 | 78 | 178 | 1.7 | 1.7 | 0.00 | 0.00 | 0.00 | 48 | 1013.9 |
| 20260906065428 | 78 | 180 | 0.9 | 0.9 | 0.00 | 0.00 | 0.00 | 49 | 1013.9 |
| 20260906064929 | 77 | 202 | 0.9 | 1.7 | 0.00 | 0.00 | 0.00 | 50 | 1013.9 |
| 20260906064428 | 78 | 210 | 1.7 | 2.6 | 0.00 | 0.00 | 0.00 | 50 | 1013.5 |
| 20260906063928 | 79 | 164 | 0.9 | 0.0 | 0.00 | 0.00 | 0.00 | 48 | 1013.9 |
| 20260906063428 | 79 | 106 | 0.9 | 0.9 | 0.00 | 0.00 | 0.00 | 47 | 1013.9 |
| 20260906062928 | 79 | 101 | 1.7 | 1.7 | 0.00 | 0.00 | 0.00 | 45 | 1013.5 |
| 20260906062430 | 78 | 80 | 1.7 | 1.7 | 0.00 | 0.00 | 0.00 | 46 | 1013.5 |
| 20260906061928 | 78 | 148 | 0.9 | 0.9 | 0.00 | 0.00 | 0.00 | 45 | 1013.5 |
| 20260906061428 | 78 | 199 | 1.7 | 1.7 | 0.00 | 0.00 | 0.00 | 44 | 1013.9 |
| 20260906060931 | 78 | 221 | 1.7 | 2.6 | 0.00 | 0.00 | 0.00 | 44 | 1013.5 |
| 20260906060429 | 79 | 120 | 0.9 | 1.7 | 0.00 | 0.00 | 0.00 | 43 | 1013.5 |
| 20260906055929 | 78 | 143 | 0.0 | 0.0 | 0.00 | 0.00 | 0.00 | 45 | 1013.5 |
| 20260906055429 | 77 | 128 | 0.9 | 0.9 | 0.00 | 0.00 | 0.00 | 45 | 1013.9 |
| 20260906054928 | 77 | 84 | 2.6 | 2.6 | 0.00 | 0.00 | 0.00 | 47 | 1013.5 |
| 20260906054428 | 77 | 190 | 0.9 | 0.9 | 0.00 | 0.00 | 0.00 | 48 | 1013.9 |
| 20260906053929 | 76 | 156 | 0.0 | 0.0 | 0.00 | 0.00 | 0.00 | 49 | 1013.5 |
| 20260906053433 | 76 | 180 | 0.9 | 0.9 | 0.00 | 0.00 | 0.00 | 50 | 1013.9 |
| 20260906052928 | 75 | 201 | 0.0 | 0.0 | 0.00 | 0.00 | 0.00 | 51 | 1013.9 |
| 20260906052429 | 75 | 221 | 0.9 | 0.9 | 0.00 | 0.00 | 0.00 | 51 | 1013.5 |
| 20260906051928 | 75 | 173 | 0.9 | 0.9 | 0.00 | 0.00 | 0.00 | 53 | 1013.5 |
| 20260906051428 | 74 | 105 | 0.9 | 0.9 | 0.00 | 0.00 | 0.00 | 55 | 1013.5 |
| 20260906050929 | 75 | 218 | 0.0 | 0.0 | 0.00 | 0.00 | 0.00 | 55 | 1013.5 |
| 20260906050429 | 74 | 100 | 0.0 | 0.0 | 0.00 | 0.00 | 0.00 | 54 | 1013.5 |
| 20260906045928 | 74 | 80 | 0.9 | 0.9 | 0.00 | 0.00 | 0.00 | 55 | 1013.5 |
| 20260906045428 | 74 | 100 | 0.9 | 0.9 | 0.00 | 0.00 | 0.00 | 56 | 1013.5 |
| 20260906044928 | 73 | 85 | 0.0 | 0.0 | 0.00 | 0.00 | 0.00 | 56 | 1013.5 |
| 20260906044429 | 73 | 71 | 0.0 | 0.0 | 0.00 | 0.00 | 0.00 | 57 | 1013.5 |
| 20260906043929 | 73 | 84 | 1.7 | 2.6 | 0.00 | 0.00 | 0.00 | 58 | 1013.5 |
| 20260906043432 | 72 | 15 | 0.0 | 0.0 | 0.00 | 0.00 | 0.00 | 58 | 1013.9 |
| 20260906042929 | 72 | 86 | 0.9 | 0.9 | 0.00 | 0.00 | 0.00 | 58 | 1013.5 |
| 20260906042428 | 72 | 87 | 0.0 | 0.0 | 0.00 | 0.00 | 0.00 | 60 | 1013.5 |
| 20260906041928 | 71 | 81 | 0.0 | 0.0 | 0.00 | 0.00 | 0.00 | 59 | 1013.5 |
| 20260906041428 | 70 | 45 | 0.0 | 0.0 | 0.00 | 0.00 | 0.00 | 61 | 1013.5 |
| 20260906040928 | 70 | 150 | 0.0 | 0.0 | 0.00 | 0.00 | 0.00 | 62 | 1013.5 |
| 20260906040428 | 70 | 150 | 0.0 | 0.0 | 0.00 | 0.00 | 0.00 | 60 | 1013.5 |
| 20260906035929 | 71 | 152 | 0.0 | 0.0 | 0.00 | 0.00 | 0.00 | 59 | 1013.5 |
| 20260906035428 | 70 | 91 | 0.9 | 0.9 | 0.00 | 0.00 | 0.00 | 61 | 1013.5 |
| 20260906034928 | 69 | 31 | 0.0 | 0.9 | 0.00 | 0.00 | 0.00 | 62 | 1013.5 |
| 20260906034431 | 68 | 27 | 0.0 | 0.0 | 0.00 | 0.00 | 0.00 | 62 | 1013.2 |
| 20260906033928 | 68 | 282 | 0.9 | 0.0 | 0.00 | 0.00 | 0.00 | 62 | 1013.2 |
| 20260906033428 | 67 | 281 | 0.0 | 0.0 | 0.00 | 0.00 | 0.00 | 63 | 1013.5 |
| 20260906032929 | 67 | 25 | 0.0 | 0.0 | 0.00 | 0.00 | 0.00 | 63 | 1013.2 |
| 20260906032428 | 67 | 25 | 0.0 | 0.0 | 0.00 | 0.00 | 0.00 | 64 | 1013.2 |
| 20260906031928 | 66 | 25 | 0.0 | 0.0 | 0.00 | 0.00 | 0.00 | 64 | 1013.2 |
| 20260906031429 | 67 | 89 | 0.0 | 0.0 | 0.00 | 0.00 | 0.00 | 65 | 1013.2 |
| 20260906030928 | 66 | 103 | 0.0 | 0.0 | 0.00 | 0.00 | 0.00 | 67 | 1012.9 |
| 20260906030428 | 66 | 104 | 0.0 | 0.0 | 0.00 | 0.00 | 0.00 | 68 | 1012.9 |
| 20260906025928 | 67 | 100 | 0.0 | 0.0 | 0.00 | 0.00 | 0.00 | 69 | 1013.2 |
| 20260906025430 | 67 | 89 | 0.0 | 0.0 | 0.00 | 0.00 | 0.00 | 66 | 1012.9 |
| 20260906024930 | 68 | 134 | 0.0 | 0.0 | 0.00 | 0.00 | 0.00 | 60 | 1012.9 |
| 20260906024427 | 68 | 90 | 0.0 | 0.0 | 0.00 | 0.00 | 0.00 | 54 | 1013.2 |
| 20260906023928 | 69 | 87 | 0.0 | 0.0 | 0.00 | 0.00 | 0.00 | 54 | 1012.9 |
| 20260906023428 | 69 | 90 | 1.7 | 1.7 | 0.00 | 0.00 | 0.00 | 50 | 1012.9 |
| 20260906022929 | 69 | 281 | 0.0 | 0.0 | 0.00 | 0.00 | 0.00 | 50 | 1012.9 |
| 20260906022429 | 69 | 279 | 0.0 | 0.0 | 0.00 | 0.00 | 0.00 | 50 | 1012.9 |
| 20260906021928 | 69 | 280 | 0.0 | 0.0 | 0.00 | 0.00 | 0.00 | 49 | 1012.5 |
| 20260906021429 | 69 | 280 | 0.9 | 0.9 | 0.00 | 0.00 | 0.00 | 49 | 1012.9 |
| 20260906020928 | 69 | 286 | 0.9 | 0.9 | 0.00 | 0.00 | 0.00 | 50 | 1012.9 |
| 20260906020428 | 69 | 74 | 0.0 | 0.0 | 0.00 | 0.00 | 0.00 | 53 | 1012.5 |
| 20260906015928 | 69 | 76 | 0.0 | 0.0 | 0.00 | 0.00 | 0.00 | 53 | 1012.9 |
| 20260906015429 | 69 | 75 | 0.0 | 0.0 | 0.00 | 0.00 | 0.00 | 53 | 1012.5 |
| 20260906014928 | 69 | 75 | 0.0 | 0.0 | 0.00 | 0.00 | 0.00 | 51 | 1012.9 |
| 20260906014428 | 69 | 75 | 0.0 | 0.0 | 0.00 | 0.00 | 0.00 | 52 | 1012.5 |
| 20260906013928 | 69 | 75 | 0.0 | 0.0 | 0.00 | 0.00 | 0.00 | 53 | 1012.5 |
| 20260906013428 | 69 | 75 | 0.0 | 0.0 | 0.00 | 0.00 | 0.00 | 53 | 1012.5 |
| 20260906012928 | 69 | 76 | 0.0 | 0.0 | 0.00 | 0.00 | 0.00 | 52 | 1012.5 |
| 20260906012428 | 69 | 75 | 0.0 | 0.0 | 0.00 | 0.00 | 0.00 | 53 | 1012.5 |
| 20260906011928 | 69 | 75 | 0.0 | 0.0 | 0.00 | 0.00 | 0.00 | 52 | 1012.5 |
| 20260906011428 | 70 | 80 | 0.0 | 0.0 | 0.00 | 0.00 | 0.00 | 52 | 1012.5 |
| 20260906010931 | 70 | 79 | 0.0 | 0.0 | 0.00 | 0.00 | 0.00 | 51 | 1012.5 |
| 20260906010429 | 70 | 300 | 0.0 | 0.0 | 0.00 | 0.00 | 0.00 | 51 | 1012.5 |
| 20260906005930 | 70 | 300 | 0.0 | 0.0 | 0.00 | 0.00 | 0.00 | 52 | 1012.9 |
| 20260906005428 | 70 | 303 | 0.9 | 0.9 | 0.00 | 0.00 | 0.00 | 52 | 1012.5 |
| 20260906004928 | 70 | 292 | 0.9 | 0.9 | 0.00 | 0.00 | 0.00 | 51 | 1012.5 |
| 20260906004430 | 70 | 277 | 0.9 | 0.9 | 0.00 | 0.00 | 0.00 | 52 | 1012.5 |
| 20260906003928 | 70 | 276 | 0.0 | 0.0 | 0.00 | 0.00 | 0.00 | 52 | 1012.5 |
| 20260906003428 | 70 | 276 | 0.9 | 0.9 | 0.00 | 0.00 | 0.00 | 53 | 1012.5 |
| 20260906002928 | 70 | 255 | 0.0 | 0.0 | 0.00 | 0.00 | 0.00 | 53 | 1012.9 |
| 20260906002428 | 70 | 245 | 0.9 | 0.9 | 0.00 | 0.00 | 0.00 | 53 | 1012.5 |
| 20260906001928 | 70 | 145 | 0.0 | 0.0 | 0.00 | 0.00 | 0.00 | 53 | 1012.9 |
| 20260906001428 | 70 | 145 | 0.0 | 0.0 | 0.00 | 0.00 | 0.00 | 53 | 1012.5 |
| 20260906000928 | 70 | 145 | 0.0 | 0.0 | 0.00 | 0.00 | 0.00 | 53 | 1012.9 |
| 20260906000428 | 70 | 75 | 0.0 | 0.0 | 0.00 | 0.00 | 0.00 | 53 | 1012.9 |
| 20260905235929 | 70 | 75 | 0.0 | 0.0 | 0.00 | 0.00 | 0.00 | 53 | 1012.9 |
| 20260905235428 | 70 | 74 | 0.0 | 0.0 | 0.00 | 0.00 | 0.00 | 53 | 1012.9 |
| 20260905234928 | 71 | 75 | 0.0 | 0.0 | 0.00 | 0.00 | 0.00 | 52 | 1012.9 |
| 20260905234428 | 71 | 75 | 0.0 | 0.0 | 0.00 | 0.00 | 0.00 | 52 | 1012.9 |
| 20260905233929 | 71 | 75 | 0.0 | 0.0 | 0.00 | 0.00 | 0.00 | 51 | 1012.9 |
| 20260905233428 | 72 | 75 | 0.0 | 0.0 | 0.00 | 0.00 | 0.00 | 50 | 1012.9 |
| 20260905232928 | 71 | 297 | 0.9 | 0.9 | 0.00 | 0.00 | 0.00 | 50 | 1012.9 |
| 20260905232429 | 71 | 288 | 0.0 | 0.0 | 0.00 | 0.00 | 0.00 | 49 | 1012.9 |
| 20260905231928 | 71 | 288 | 0.0 | 0.0 | 0.00 | 0.00 | 0.00 | 50 | 1012.5 |
| 20260905231429 | 71 | 284 | 0.0 | 0.0 | 0.00 | 0.00 | 0.00 | 50 | 1012.9 |
| 20260905230928 | 71 | 284 | 0.9 | 0.9 | 0.00 | 0.00 | 0.00 | 51 | 1012.9 |
| 20260905230428 | 71 | 283 | 1.7 | 0.9 | 0.00 | 0.00 | 0.00 | 51 | 1012.9 |
| 20260905225928 | 71 | 255 | 0.9 | 0.9 | 0.00 | 0.00 | 0.00 | 51 | 1012.9 |
| 20260905225428 | 71 | 240 | 0.9 | 0.9 | 0.00 | 0.00 | 0.00 | 52 | 1012.5 |
| 20260905224928 | 71 | 214 | 0.0 | 0.0 | 0.00 | 0.00 | 0.00 | 51 | 1012.5 |
| 20260905224428 | 72 | 109 | 0.0 | 0.0 | 0.00 | 0.00 | 0.00 | 51 | 1012.9 |
| 20260905223928 | 72 | 92 | 0.0 | 0.0 | 0.00 | 0.00 | 0.00 | 50 | 1012.9 |
| 20260905223428 | 73 | 92 | 0.0 | 0.0 | 0.00 | 0.00 | 0.00 | 50 | 1012.9 |
| 20260905222928 | 73 | 92 | 0.0 | 0.0 | 0.00 | 0.00 | 0.00 | 49 | 1012.9 |
| 20260905222429 | 73 | 92 | 0.0 | 0.0 | 0.00 | 0.00 | 0.00 | 49 | 1012.9 |
| 20260905221928 | 73 | 70 | 0.9 | 0.9 | 0.00 | 0.00 | 0.00 | 50 | 1012.9 |
| 20260905221428 | 73 | 285 | 0.0 | 0.0 | 0.00 | 0.00 | 0.00 | 50 | 1012.9 |
| 20260905220928 | 72 | 230 | 1.7 | 0.9 | 0.00 | 0.00 | 0.00 | 51 | 1012.9 |
| 20260905220428 | 73 | 150 | 0.9 | 0.9 | 0.00 | 0.00 | 0.00 | 51 | 1012.9 |
| 20260905215928 | 73 | 147 | 0.0 | 0.0 | 0.00 | 0.00 | 0.00 | 51 | 1013.2 |
| 20260905215430 | 73 | 146 | 0.0 | 0.0 | 0.00 | 0.00 | 0.00 | 50 | 1013.2 |
| 20260905214929 | 73 | 147 | 0.0 | 0.0 | 0.00 | 0.00 | 0.00 | 50 | 1013.2 |
| 20260905214429 | 73 | 146 | 0.0 | 0.0 | 0.00 | 0.00 | 0.00 | 50 | 1012.9 |
| 20260905213929 | 73 | 146 | 0.0 | 0.0 | 0.00 | 0.00 | 0.00 | 50 | 1013.2 |
| 20260905213428 | 73 | 146 | 0.0 | 0.0 | 0.00 | 0.00 | 0.00 | 49 | 1013.2 |
| 20260905212929 | 74 | 146 | 0.0 | 0.0 | 0.00 | 0.00 | 0.00 | 49 | 1013.2 |
| 20260905212429 | 74 | 146 | 0.0 | 0.0 | 0.00 | 0.00 | 0.00 | 48 | 1013.2 |
| 20260905211929 | 74 | 146 | 0.0 | 0.0 | 0.00 | 0.00 | 0.00 | 49 | 1013.2 |
| 20260905211429 | 74 | 146 | 0.0 | 0.0 | 0.00 | 0.00 | 0.00 | 49 | 1013.5 |
| 20260905210928 | 74 | 146 | 0.0 | 0.0 | 0.00 | 0.00 | 0.00 | 49 | 1013.5 |
| 20260905210429 | 74 | 146 | 0.0 | 0.0 | 0.00 | 0.00 | 0.00 | 49 | 1013.5 |
| 20260905205928 | 74 | 145 | 0.0 | 0.0 | 0.00 | 0.00 | 0.00 | 48 | 1013.5 |
| 20260905205428 | 74 | 146 | 0.0 | 0.0 | 0.00 | 0.00 | 0.00 | 48 | 1013.5 |
| 20260905204928 | 74 | 146 | 0.0 | 0.0 | 0.00 | 0.00 | 0.00 | 48 | 1013.5 |
| 20260905204428 | 74 | 141 | 0.0 | 0.0 | 0.00 | 0.00 | 0.00 | 49 | 1013.5 |
| 20260905203929 | 74 | 140 | 0.0 | 0.0 | 0.00 | 0.00 | 0.00 | 48 | 1013.5 |
| 20260905203428 | 74 | 140 | 0.9 | 0.9 | 0.00 | 0.00 | 0.00 | 48 | 1013.5 |
| 20260905202929 | 74 | 124 | 0.0 | 0.0 | 0.00 | 0.00 | 0.00 | 48 | 1013.5 |
| 20260905202428 | 74 | 124 | 0.0 | 0.0 | 0.00 | 0.00 | 0.00 | 47 | 1013.5 |
| 20260905201930 | 74 | 124 | 0.0 | 0.0 | 0.00 | 0.00 | 0.00 | 47 | 1013.5 |
| 20260905201429 | 74 | 123 | 0.0 | 0.0 | 0.00 | 0.00 | 0.00 | 47 | 1013.5 |
| 20260905200928 | 75 | 123 | 0.0 | 0.0 | 0.00 | 0.00 | 0.00 | 47 | 1013.5 |
| 20260905200428 | 75 | 123 | 0.0 | 0.0 | 0.00 | 0.00 | 0.00 | 47 | 1013.5 |
| 20260905195929 | 75 | 123 | 0.0 | 0.0 | 0.00 | 0.00 | 0.00 | 47 | 1013.9 |
| 20260905195428 | 75 | 103 | 0.0 | 0.0 | 0.00 | 0.00 | 0.00 | 46 | 1013.5 |
| 20260905194930 | 75 | 103 | 0.0 | 0.0 | 0.00 | 0.00 | 0.00 | 47 | 1013.5 |
| 20260905194428 | 75 | 132 | 0.9 | 0.9 | 0.00 | 0.00 | 0.00 | 47 | 1013.5 |
| 20260905193929 | 75 | 137 | 0.0 | 0.0 | 0.00 | 0.00 | 0.00 | 47 | 1013.5 |
| 20260905193428 | 76 | 92 | 0.9 | 0.9 | 0.00 | 0.00 | 0.00 | 46 | 1013.5 |
| 20260905192928 | 76 | 58 | 0.0 | 0.0 | 0.00 | 0.00 | 0.00 | 46 | 1013.5 |
| 20260905192428 | 77 | 58 | 0.0 | 0.0 | 0.00 | 0.00 | 0.00 | 45 | 1013.5 |
| 20260905191928 | 77 | 85 | 0.0 | 0.0 | 0.00 | 0.00 | 0.00 | 44 | 1013.5 |
| 20260905191428 | 77 | 85 | 0.0 | 0.0 | 0.00 | 0.00 | 0.00 | 45 | 1013.5 |
| 20260905190928 | 77 | 85 | 0.0 | 0.0 | 0.00 | 0.00 | 0.00 | 45 | 1013.5 |
| 20260905190429 | 78 | 84 | 0.0 | 0.0 | 0.00 | 0.00 | 0.00 | 44 | 1013.2 |
| 20260905185928 | 78 | 84 | 0.9 | 0.9 | 0.00 | 0.00 | 0.00 | 44 | 1013.5 |
| 20260905185428 | 77 | 85 | 0.9 | 0.9 | 0.00 | 0.00 | 0.00 | 44 | 1013.9 |
| 20260905184928 | 77 | 40 | 0.0 | 0.0 | 0.00 | 0.00 | 0.00 | 45 | 1013.5 |
| 20260905184428 | 77 | 6 | 0.0 | 0.0 | 0.00 | 0.00 | 0.00 | 46 | 1013.2 |
| 20260905183930 | 77 | 6 | 0.0 | 0.9 | 0.00 | 0.00 | 0.00 | 46 | 1013.5 |
| 20260905183428 | 77 | 8 | 0.9 | 0.0 | 0.00 | 0.00 | 0.00 | 46 | 1013.5 |
| 20260905182928 | 77 | 11 | 0.0 | 0.0 | 0.00 | 0.00 | 0.00 | 46 | 1013.9 |
| 20260905182428 | 77 | 11 | 0.0 | 0.0 | 0.00 | 0.00 | 0.00 | 46 | 1013.5 |
| 20260905181929 | 77 | 11 | 0.0 | 0.0 | 0.00 | 0.00 | 0.00 | 46 | 1013.9 |
| 20260905181428 | 77 | 11 | 0.0 | 0.0 | 0.00 | 0.00 | 0.00 | 46 | 1013.5 |
| 20260905180928 | 77 | 3 | 1.7 | 1.7 | 0.00 | 0.00 | 0.00 | 45 | 1013.9 |
| 20260905180428 | 78 | 350 | 0.9 | 0.9 | 0.00 | 0.00 | 0.00 | 45 | 1013.5 |
| 20260905175929 | 78 | 18 | 0.9 | 0.9 | 0.00 | 0.00 | 0.00 | 44 | 1013.5 |
| 20260905175429 | 78 | 8 | 0.9 | 0.9 | 0.00 | 0.00 | 0.00 | 44 | 1013.9 |
| 20260905174928 | 79 | 82 | 0.0 | 0.9 | 0.00 | 0.00 | 0.00 | 43 | 1013.9 |
| 20260905174428 | 78 | 85 | 0.9 | 0.9 | 0.00 | 0.00 | 0.00 | 44 | 1013.5 |
| 20260905173928 | 78 | 94 | 0.0 | 0.0 | 0.00 | 0.00 | 0.00 | 44 | 1013.5 |
| 20260905173428 | 78 | 128 | 0.0 | 0.0 | 0.00 | 0.00 | 0.00 | 44 | 1013.5 |
| 20260905172928 | 78 | 144 | 0.0 | 0.0 | 0.00 | 0.00 | 0.00 | 44 | 1013.5 |
| 20260905172429 | 78 | 147 | 0.0 | 0.0 | 0.00 | 0.00 | 0.00 | 44 | 1013.5 |
| 20260905171928 | 78 | 147 | 0.0 | 0.0 | 0.00 | 0.00 | 0.00 | 44 | 1013.5 |
| 20260905171428 | 79 | 155 | 0.0 | 0.0 | 0.00 | 0.00 | 0.00 | 44 | 1013.5 |
| 20260905170929 | 79 | 145 | 0.0 | 0.0 | 0.00 | 0.00 | 0.00 | 43 | 1013.2 |
| 20260905170428 | 79 | 206 | 0.9 | 0.9 | 0.00 | 0.00 | 0.00 | 43 | 1013.2 |
| 20260905165929 | 79 | 191 | 1.7 | 2.6 | 0.00 | 0.00 | 0.00 | 43 | 1013.2 |
| 20260905165428 | 79 | 215 | 0.9 | 1.7 | 0.00 | 0.00 | 0.00 | 42 | 1013.2 |
| 20260905164928 | 80 | 202 | 0.9 | 0.9 | 0.00 | 0.00 | 0.00 | 42 | 1013.2 |
| 20260905164429 | 80 | 160 | 3.5 | 4.3 | 0.00 | 0.00 | 0.00 | 41 | 1013.2 |
| 20260905163928 | 80 | 217 | 0.9 | 0.9 | 0.00 | 0.00 | 0.00 | 40 | 1012.9 |
| 20260905163428 | 80 | 211 | 1.7 | 1.7 | 0.00 | 0.00 | 0.00 | 40 | 1012.9 |
| 20260905162928 | 80 | 207 | 0.9 | 1.7 | 0.00 | 0.00 | 0.00 | 40 | 1012.9 |
| 20260905162429 | 80 | 200 | 5.2 | 6.1 | 0.00 | 0.00 | 0.00 | 40 | 1012.9 |
| 20260905161928 | 81 | 195 | 3.5 | 4.3 | 0.00 | 0.00 | 0.00 | 41 | 1012.9 |
| 20260905161432 | 81 | 215 | 2.6 | 4.3 | 0.00 | 0.00 | 0.00 | 41 | 1012.9 |
| 20260905160929 | 81 | 199 | 2.6 | 2.6 | 0.00 | 0.00 | 0.00 | 41 | 1012.9 |
| 20260905160428 | 81 | 253 | 2.6 | 2.6 | 0.00 | 0.00 | 0.00 | 41 | 1012.9 |
| 20260905155928 | 82 | 237 | 1.7 | 1.7 | 0.00 | 0.00 | 0.00 | 40 | 1012.5 |
| 20260905155428 | 82 | 239 | 3.5 | 4.3 | 0.00 | 0.00 | 0.00 | 40 | 1012.9 |
| 20260905154929 | 82 | 176 | 4.3 | 6.1 | 0.00 | 0.00 | 0.00 | 40 | 1012.9 |
| 20260905154428 | 83 | 234 | 4.3 | 5.2 | 0.00 | 0.00 | 0.00 | 40 | 1012.5 |
| 20260905153928 | 83 | 169 | 3.5 | 5.2 | 0.00 | 0.00 | 0.00 | 40 | 1012.5 |
| 20260905153428 | 83 | 161 | 4.3 | 5.2 | 0.00 | 0.00 | 0.00 | 39 | 1012.5 |
| 20260905152929 | 84 | 201 | 4.3 | 6.1 | 0.00 | 0.00 | 0.00 | 38 | 1012.5 |
| 20260905152428 | 85 | 185 | 5.2 | 7.0 | 0.00 | 0.00 | 0.00 | 37 | 1012.9 |
| 20260905151928 | 85 | 223 | 0.9 | 0.9 | 0.00 | 0.00 | 0.00 | 35 | 1012.9 |
| 20260905151429 | 85 | 189 | 3.5 | 5.2 | 0.00 | 0.00 | 0.00 | 34 | 1012.5 |
| 20260905150928 | 86 | 230 | 3.5 | 4.3 | 0.00 | 0.00 | 0.00 | 34 | 1012.5 |
| 20260905150428 | 86 | 212 | 5.2 | 7.0 | 0.00 | 0.00 | 0.00 | 33 | 1012.5 |
| 20260905145930 | 86 | 234 | 5.2 | 7.0 | 0.00 | 0.00 | 0.00 | 33 | 1012.5 |
| 20260905145429 | 87 | 193 | 3.5 | 4.3 | 0.00 | 0.00 | 0.00 | 31 | 1012.5 |
| 20260905144928 | 87 | 199 | 3.5 | 4.3 | 0.00 | 0.00 | 0.00 | 30 | 1012.5 |
| 20260905144429 | 87 | 223 | 2.6 | 2.6 | 0.00 | 0.00 | 0.00 | 29 | 1012.5 |
| 20260905143928 | 88 | 200 | 4.3 | 6.1 | 0.00 | 0.00 | 0.00 | 28 | 1012.5 |
| 20260905143429 | 88 | 170 | 3.5 | 4.3 | 0.00 | 0.00 | 0.00 | 27 | 1012.5 |
| 20260905142928 | 88 | 257 | 4.3 | 6.1 | 0.00 | 0.00 | 0.00 | 28 | 1012.5 |
| 20260905142428 | 89 | 201 | 6.1 | 8.7 | 0.00 | 0.00 | 0.00 | 26 | 1012.2 |
| 20260905141929 | 88 | 220 | 2.6 | 2.6 | 0.00 | 0.00 | 0.00 | 25 | 1012.5 |
| 20260905141428 | 89 | 130 | 6.1 | 7.0 | 0.00 | 0.00 | 0.00 | 25 | 1012.2 |
| 20260905140928 | 90 | 257 | 2.6 | 4.3 | 0.00 | 0.00 | 0.00 | 24 | 1012.5 |
| 20260905140430 | 90 | 237 | 5.2 | 7.0 | 0.00 | 0.00 | 0.00 | 23 | 1012.2 |
| 20260905135929 | 90 | 189 | 7.0 | 7.8 | 0.00 | 0.00 | 0.00 | 22 | 1012.2 |
| 20260905135429 | 92 | 163 | 3.5 | 4.3 | 0.00 | 0.00 | 0.00 | 18 | 1012.5 |
| 20260905134929 | 92 | 239 | 2.6 | 4.3 | 0.00 | 0.00 | 0.00 | 17 | 1012.2 |
| 20260905134428 | 92 | 210 | 0.9 | 1.7 | 0.00 | 0.00 | 0.00 | 17 | 1012.2 |
| 20260905133928 | 91 | 220 | 0.9 | 0.9 | 0.00 | 0.00 | 0.00 | 17 | 1012.2 |
| 20260905133428 | 92 | 213 | 2.6 | 2.6 | 0.00 | 0.00 | 0.00 | 17 | 1012.2 |
| 20260905132928 | 92 | 213 | 2.6 | 5.2 | 0.00 | 0.00 | 0.00 | 16 | 1012.5 |
| 20260905132428 | 92 | 215 | 0.9 | 0.9 | 0.00 | 0.00 | 0.00 | 16 | 1012.2 |
| 20260905131929 | 93 | 197 | 2.6 | 4.3 | 0.00 | 0.00 | 0.00 | 16 | 1012.5 |
| 20260905131428 | 93 | 162 | 2.6 | 2.6 | 0.00 | 0.00 | 0.00 | 16 | 1012.5 |
| 20260905130930 | 93 | 117 | 4.3 | 8.7 | 0.00 | 0.00 | 0.00 | 15 | 1012.2 |
| 20260905130429 | 92 | 164 | 0.9 | 0.9 | 0.00 | 0.00 | 0.00 | 14 | 1012.5 |
| 20260905125928 | 91 | 114 | 2.6 | 4.3 | 0.00 | 0.00 | 0.00 | 14 | 1012.2 |
| 20260905125428 | 92 | 196 | 5.2 | 6.1 | 0.00 | 0.00 | 0.00 | 13 | 1012.5 |